createdAt,value
2017-08-16T00:00:48.295Z,11.30
2017-08-16T00:03:18.307Z,12.30
2017-08-16T00:05:47.718Z,11.60
2017-08-16T00:08:17.150Z,11.00
2017-08-16T00:10:47.306Z,11.97
2017-08-16T00:13:16.736Z,11.00
2017-08-16T00:15:46.156Z,11.30
2017-08-16T00:18:15.564Z,10.80
2017-08-16T00:20:44.768Z,11.40
2017-08-16T00:23:14.165Z,11.70
2017-08-16T00:25:43.386Z,10.17
2017-08-16T00:28:13.562Z,11.97
2017-08-16T00:30:42.981Z,13.07
2017-08-16T00:33:12.372Z,10.80
2017-08-16T00:35:41.791Z,12.77
2017-08-16T00:38:11.188Z,12.20
2017-08-16T00:40:41.361Z,12.10
2017-08-16T00:43:10.781Z,10.80
2017-08-16T00:45:40.970Z,13.70
2017-08-16T00:48:09.709Z,9.63
2017-08-16T00:50:39.453Z,11.20
2017-08-16T00:53:08.887Z,12.23
2017-08-16T00:55:38.292Z,10.27
2017-08-16T00:58:07.678Z,9.73
2017-08-16T01:00:36.408Z,10.07
2017-08-16T01:03:04.918Z,12.67
2017-08-16T01:05:34.326Z,10.53
2017-08-16T01:08:03.728Z,10.10
2017-08-16T01:10:33.353Z,10.57
2017-08-16T01:13:02.767Z,13.60
2017-08-16T01:15:31.967Z,12.20
2017-08-16T01:18:01.362Z,10.60
2017-08-16T01:20:30.786Z,20.10
2017-08-16T01:23:00.187Z,12.40
2017-08-16T01:25:29.590Z,13.30
2017-08-16T01:27:59.003Z,9.50
2017-08-16T01:30:28.987Z,9.80
2017-08-16T01:32:58.993Z,11.60
2017-08-16T01:35:28.368Z,9.27
2017-08-16T01:37:57.787Z,13.07
2017-08-16T01:40:26.990Z,9.87
2017-08-16T01:42:56.388Z,12.13
2017-08-16T01:45:25.797Z,9.17
2017-08-16T01:47:55.199Z,9.37
2017-08-16T01:50:24.586Z,10.47
2017-08-16T01:52:54.028Z,8.90
2017-08-16T01:55:23.423Z,8.90
2017-08-16T01:57:52.842Z,9.23
2017-08-16T02:00:22.229Z,11.30
2017-08-16T02:02:51.453Z,10.47
2017-08-16T02:05:20.879Z,8.70
2017-08-16T02:07:50.294Z,11.77
2017-08-16T02:10:19.720Z,9.20
2017-08-16T02:12:49.144Z,11.07
2017-08-16T02:15:18.522Z,8.80
2017-08-16T02:17:47.924Z,9.90
2017-08-16T02:20:17.325Z,10.33
2017-08-16T02:22:46.738Z,11.53
2017-08-16T02:25:16.154Z,11.37
2017-08-16T02:27:45.570Z,14.20
2017-08-16T02:30:14.977Z,10.13
2017-08-16T02:32:45.177Z,9.73
2017-08-16T02:35:14.366Z,8.87
2017-08-16T02:37:43.781Z,8.90
2017-08-16T02:40:13.181Z,11.50
2017-08-16T02:42:42.606Z,9.10
2017-08-16T02:45:12.010Z,9.27
2017-08-16T02:47:41.405Z,9.20
2017-08-16T02:50:10.838Z,12.17
2017-08-16T02:52:40.297Z,12.67
2017-08-16T02:55:08.839Z,9.90
2017-08-16T02:57:37.548Z,9.77
2017-08-16T03:00:06.275Z,9.00
2017-08-16T03:02:34.795Z,8.00
2017-08-16T03:05:03.336Z,13.03
2017-08-16T03:07:31.835Z,11.03
2017-08-16T03:10:00.344Z,7.90
2017-08-16T03:12:29.196Z,9.63
2017-08-16T03:14:57.704Z,8.80
2017-08-16T03:17:26.867Z,10.43
2017-08-16T03:19:55.369Z,7.73
2017-08-16T03:22:23.869Z,9.00
2017-08-16T03:24:52.589Z,8.20
2017-08-16T03:27:21.293Z,12.40
2017-08-16T03:29:49.813Z,7.30
2017-08-16T03:32:18.862Z,8.73
2017-08-16T03:34:47.713Z,10.30
2017-08-16T03:37:16.437Z,10.60
2017-08-16T03:39:45.484Z,11.60
2017-08-16T03:42:14.017Z,10.80
2017-08-16T03:44:42.522Z,8.17
2017-08-16T03:47:11.807Z,8.17
2017-08-16T03:49:40.515Z,7.77
2017-08-16T03:52:09.783Z,8.20
2017-08-16T03:54:39.074Z,10.87
2017-08-16T03:57:07.966Z,8.03
2017-08-16T03:59:36.468Z,7.73
2017-08-16T04:02:04.980Z,7.90
2017-08-16T04:04:34.258Z,8.03
2017-08-16T04:07:03.538Z,20.07
2017-08-16T04:09:32.046Z,8.30
2017-08-16T04:12:01.329Z,6.70
2017-08-16T04:14:29.837Z,11.10
2017-08-16T04:16:58.566Z,7.83
2017-08-16T04:19:27.261Z,7.37
2017-08-16T04:21:55.794Z,8.07
2017-08-16T04:24:25.944Z,7.70
2017-08-16T04:26:54.659Z,9.03
2017-08-16T04:29:23.170Z,6.60
2017-08-16T04:31:53.346Z,8.53
2017-08-16T04:34:21.850Z,7.13
2017-08-16T04:36:50.756Z,18.50
2017-08-16T04:39:19.257Z,7.33
2017-08-16T04:41:47.799Z,6.90
2017-08-16T04:44:16.648Z,6.07
2017-08-16T04:46:45.367Z,8.13
2017-08-16T04:49:14.067Z,9.20
2017-08-16T04:51:42.574Z,6.57
2017-08-16T04:54:11.077Z,9.30
2017-08-16T04:56:39.927Z,8.03
2017-08-16T04:59:09.216Z,8.40
2017-08-16T05:01:38.488Z,8.33
2017-08-16T05:04:07.547Z,7.53
2017-08-16T05:06:36.382Z,7.90
2017-08-16T05:09:05.399Z,7.20
2017-08-16T05:11:33.905Z,8.23
2017-08-16T05:14:02.418Z,8.47
2017-08-16T05:16:30.926Z,9.80
2017-08-16T05:18:59.440Z,6.57
2017-08-16T05:21:27.957Z,6.50
2017-08-16T05:23:56.459Z,5.80
2017-08-16T05:26:24.970Z,7.40
2017-08-16T05:28:54.244Z,6.40
2017-08-16T05:31:22.949Z,8.27
2017-08-16T05:33:51.660Z,10.50
2017-08-16T05:36:25.757Z,10.70
2017-08-16T05:38:54.271Z,11.40
2017-08-16T05:41:23.477Z,7.77
2017-08-16T05:43:52.177Z,11.43
2017-08-16T05:46:20.909Z,10.57
2017-08-16T05:48:50.862Z,7.80
2017-08-16T05:51:21.044Z,8.60
2017-08-16T05:53:50.441Z,7.07
2017-08-16T05:56:19.868Z,6.77
2017-08-16T05:58:50.025Z,9.40
2017-08-16T06:01:19.459Z,10.50
2017-08-16T06:03:48.847Z,7.87
2017-08-16T06:06:18.246Z,8.80
2017-08-16T06:08:47.646Z,8.47
2017-08-16T06:11:17.049Z,6.87
2017-08-16T06:13:46.445Z,8.10
2017-08-16T06:16:15.908Z,11.40
2017-08-16T06:18:46.078Z,8.63
2017-08-16T06:21:15.486Z,7.63
2017-08-16T06:23:44.896Z,9.90
2017-08-16T06:26:14.334Z,7.93
2017-08-16T06:28:44.500Z,8.43
2017-08-16T06:31:13.907Z,10.57
2017-08-16T06:33:43.312Z,8.37
2017-08-16T06:36:12.699Z,8.47
2017-08-16T06:38:42.097Z,9.93
2017-08-16T06:41:11.502Z,9.80
2017-08-16T06:43:40.921Z,9.57
2017-08-16T06:46:10.314Z,13.20
2017-08-16T06:48:39.708Z,9.40
2017-08-16T06:51:09.116Z,14.80
2017-08-16T06:53:38.519Z,11.30
2017-08-16T06:56:07.913Z,12.67
2017-08-16T06:58:38.122Z,10.00
2017-08-16T07:01:07.510Z,12.13
2017-08-16T07:03:36.926Z,10.90
2017-08-16T07:06:06.368Z,11.77
2017-08-16T07:08:35.802Z,14.03
2017-08-16T07:11:05.274Z,10.70
2017-08-16T07:13:34.692Z,12.60
2017-08-16T07:16:05.316Z,12.10
2017-08-16T07:18:34.744Z,11.60
2017-08-16T07:21:04.163Z,13.80
2017-08-16T07:23:33.586Z,11.87
2017-08-16T07:26:03.754Z,12.47
2017-08-16T07:28:33.169Z,14.37
2017-08-16T07:31:03.337Z,11.20
2017-08-16T07:33:33.514Z,11.47
2017-08-16T07:36:02.914Z,12.87
2017-08-16T07:38:34.004Z,19.17
2017-08-16T07:41:03.871Z,13.43
2017-08-16T07:43:33.400Z,13.90
2017-08-16T07:46:03.060Z,14.70
2017-08-16T07:48:33.709Z,15.40
2017-08-16T07:51:03.153Z,15.33
2017-08-16T07:53:32.859Z,19.77
2017-08-16T07:56:02.475Z,18.17
2017-08-16T07:58:33.651Z,18.93
2017-08-16T08:01:03.420Z,20.80
2017-08-16T08:03:33.976Z,20.37
2017-08-16T08:06:04.470Z,19.57
2017-08-16T08:08:34.141Z,21.90
2017-08-16T08:11:03.780Z,27.03
2017-08-16T08:13:33.521Z,26.73
2017-08-16T08:16:02.916Z,30.30
2017-08-16T08:18:32.401Z,28.30
2017-08-16T08:21:01.972Z,19.97
2017-08-16T08:23:31.458Z,21.13
2017-08-16T08:26:01.647Z,22.70
2017-08-16T08:28:31.049Z,22.17
2017-08-16T08:31:00.944Z,18.60
2017-08-16T08:33:32.301Z,18.93
2017-08-16T08:36:02.208Z,21.93
2017-08-16T08:38:32.305Z,26.57
2017-08-16T08:41:02.068Z,27.90
2017-08-16T08:43:32.474Z,18.20
2017-08-16T08:46:03.401Z,16.43
2017-08-16T08:48:33.704Z,20.13
2017-08-16T08:51:03.473Z,25.30
2017-08-16T08:53:37.420Z,21.83
2017-08-16T08:56:11.335Z,16.33
2017-08-16T08:58:41.429Z,17.97
2017-08-16T09:01:12.173Z,24.23
2017-08-16T09:03:41.765Z,24.73
2017-08-16T09:06:11.546Z,23.70
2017-08-16T09:08:41.009Z,20.33
2017-08-16T09:11:11.546Z,17.37
2017-08-16T09:13:42.424Z,18.80
2017-08-16T09:16:11.920Z,20.00
2017-08-16T09:18:42.650Z,18.97
2017-08-16T09:21:16.594Z,22.07
2017-08-16T09:23:47.102Z,19.43
2017-08-16T09:26:16.514Z,20.20
2017-08-16T09:28:46.702Z,21.07
2017-08-16T09:31:16.140Z,17.57
2017-08-16T09:33:45.570Z,22.00
2017-08-16T09:36:14.994Z,18.27
2017-08-16T09:38:44.403Z,18.70
2017-08-16T09:41:13.821Z,23.67
2017-08-16T09:43:43.280Z,21.10
2017-08-16T09:46:12.682Z,21.23
2017-08-16T09:48:42.871Z,20.30
2017-08-16T09:51:12.274Z,17.70
2017-08-16T09:53:41.702Z,15.63
2017-08-16T09:56:11.869Z,16.00
2017-08-16T09:58:41.286Z,18.33
2017-08-16T10:01:10.728Z,16.03
2017-08-16T10:03:40.918Z,22.67
2017-08-16T10:06:10.352Z,19.80
2017-08-16T10:08:39.785Z,14.00
2017-08-16T10:11:09.170Z,9.57
2017-08-16T10:13:38.585Z,8.70
2017-08-16T10:16:08.744Z,9.70
2017-08-16T10:18:38.178Z,17.20
2017-08-16T10:21:07.606Z,12.60
2017-08-16T10:23:37.036Z,10.00
2017-08-16T10:26:06.430Z,10.30
2017-08-16T10:28:35.854Z,14.80
2017-08-16T10:31:06.034Z,17.93
2017-08-16T10:33:36.222Z,21.13
2017-08-16T10:36:05.657Z,70.57
2017-08-16T10:38:35.851Z,14.30
2017-08-16T10:41:05.249Z,13.53
2017-08-16T10:43:34.679Z,11.93
2017-08-16T10:46:04.092Z,12.60
2017-08-16T10:48:34.282Z,27.43
2017-08-16T10:51:03.693Z,12.57
2017-08-16T10:53:33.086Z,14.43
2017-08-16T10:56:03.265Z,16.50
2017-08-16T10:58:32.666Z,18.80
2017-08-16T11:01:02.070Z,9.80
2017-08-16T11:03:31.349Z,15.97
2017-08-16T11:06:00.963Z,15.57
2017-08-16T11:08:30.362Z,18.90
2017-08-16T11:10:59.795Z,20.67
2017-08-16T11:13:29.190Z,25.80
2017-08-16T11:15:58.620Z,24.90
2017-08-16T11:18:28.036Z,25.60
2017-08-16T11:20:57.455Z,23.90
2017-08-16T11:23:27.692Z,27.03
2017-08-16T11:25:58.021Z,23.47
2017-08-16T11:28:27.418Z,23.87
2017-08-16T11:30:56.845Z,24.33
2017-08-16T11:33:26.484Z,28.20
2017-08-16T11:35:55.903Z,26.83
2017-08-16T11:38:25.305Z,25.07
2017-08-16T11:40:54.748Z,24.27
2017-08-16T11:43:24.148Z,20.67
2017-08-16T11:45:54.339Z,18.00
2017-08-16T11:48:24.508Z,21.63
2017-08-16T11:50:53.949Z,17.27
2017-08-16T11:53:24.155Z,14.70
2017-08-16T11:55:53.552Z,15.20
2017-08-16T11:58:22.980Z,16.83
2017-08-16T12:00:52.398Z,16.80
2017-08-16T12:03:21.822Z,16.60
2017-08-16T12:05:51.257Z,19.10
2017-08-16T12:08:20.662Z,18.57
2017-08-16T12:10:50.100Z,16.53
2017-08-16T12:13:19.503Z,15.00
2017-08-16T12:15:49.702Z,18.20
2017-08-16T12:18:19.127Z,21.20
2017-08-16T12:20:49.293Z,20.47
2017-08-16T12:23:18.695Z,16.10
2017-08-16T12:25:48.173Z,19.37
2017-08-16T12:28:17.587Z,20.63
2017-08-16T12:30:47.014Z,18.93
2017-08-16T12:33:16.440Z,36.60
2017-08-16T12:35:45.836Z,29.77
2017-08-16T12:38:15.245Z,27.00
2017-08-16T12:40:44.671Z,26.37
2017-08-16T12:43:14.107Z,22.80
2017-08-16T12:45:44.621Z,16.60
2017-08-16T12:48:14.414Z,15.67
2017-08-16T12:50:43.843Z,13.33
2017-08-16T12:53:14.572Z,13.10
2017-08-16T12:55:44.009Z,14.70
2017-08-16T12:58:13.451Z,18.33
2017-08-16T13:00:42.877Z,14.50
2017-08-16T13:03:12.342Z,18.37
2017-08-16T13:05:41.745Z,15.23
2017-08-16T13:08:12.559Z,10.73
2017-08-16T13:10:41.958Z,12.13
2017-08-16T13:13:11.396Z,10.17
2017-08-16T13:15:40.809Z,9.70
2017-08-16T13:18:10.585Z,10.90
2017-08-16T13:20:40.044Z,10.03
2017-08-16T13:23:09.450Z,10.53
2017-08-16T13:25:38.844Z,11.23
2017-08-16T13:28:08.290Z,12.10
2017-08-16T13:30:37.697Z,12.23
2017-08-16T13:33:07.106Z,11.30
2017-08-16T13:35:36.522Z,13.73
2017-08-16T13:38:06.700Z,12.77
2017-08-16T13:40:36.118Z,14.10
2017-08-16T13:43:05.333Z,12.87
2017-08-16T13:45:34.758Z,13.47
2017-08-16T13:48:04.926Z,17.27
2017-08-16T13:50:34.361Z,15.47
2017-08-16T13:53:03.783Z,12.40
2017-08-16T13:55:33.974Z,20.30
2017-08-16T13:58:03.362Z,13.63
2017-08-16T14:00:32.778Z,13.70
2017-08-16T14:03:02.195Z,13.53
2017-08-16T14:05:31.611Z,15.50
2017-08-16T14:08:01.011Z,14.20
2017-08-16T14:10:30.413Z,14.50
2017-08-16T14:13:00.581Z,13.43
2017-08-16T14:15:30.009Z,13.47
2017-08-16T14:17:59.414Z,14.20
2017-08-16T14:20:28.835Z,20.83
2017-08-16T14:22:58.248Z,12.87
2017-08-16T14:25:27.717Z,13.43
2017-08-16T14:27:57.888Z,9.57
2017-08-16T14:30:27.293Z,10.20
2017-08-16T14:32:56.812Z,13.10
2017-08-16T14:35:26.269Z,10.40
2017-08-16T14:37:56.766Z,11.10
2017-08-16T14:40:26.178Z,12.43
2017-08-16T14:42:55.585Z,18.83
2017-08-16T14:45:25.001Z,13.37
2017-08-16T14:47:54.210Z,13.97
2017-08-16T14:50:23.619Z,14.83
2017-08-16T14:52:53.164Z,13.93
2017-08-16T14:55:23.401Z,13.37
2017-08-16T14:57:52.790Z,15.87
2017-08-16T15:00:22.248Z,15.07
2017-08-16T15:02:51.475Z,19.47
2017-08-16T15:05:21.659Z,15.53
2017-08-16T15:07:51.851Z,17.40
2017-08-16T15:10:21.260Z,17.47
2017-08-16T15:12:50.973Z,34.63
2017-08-16T15:15:20.217Z,18.00
2017-08-16T15:17:50.218Z,20.83
2017-08-16T15:20:20.386Z,14.27
2017-08-16T15:22:49.806Z,13.60
2017-08-16T15:25:19.208Z,19.70
2017-08-16T15:27:49.420Z,96.70
2017-08-16T15:30:18.848Z,18.53
2017-08-16T15:32:48.278Z,8.63
2017-08-16T15:35:17.814Z,12.60
2017-08-16T15:37:47.220Z,11.30
2017-08-16T15:40:16.625Z,14.13
2017-08-16T15:42:46.035Z,9.60
2017-08-16T15:45:15.239Z,11.63
2017-08-16T15:47:44.660Z,11.20
2017-08-16T15:50:14.064Z,14.50
2017-08-16T15:52:43.465Z,11.83
2017-08-16T15:55:12.892Z,12.00
2017-08-16T15:57:42.374Z,12.03
2017-08-16T16:00:11.771Z,11.83
2017-08-16T16:02:40.968Z,12.97
2017-08-16T16:05:10.579Z,13.93
2017-08-16T16:07:39.983Z,13.63
2017-08-16T16:10:09.559Z,14.03
2017-08-16T16:12:39.738Z,12.73
2017-08-16T16:15:09.193Z,14.13
2017-08-16T16:17:38.587Z,73.00
2017-08-16T16:20:08.028Z,13.80
2017-08-16T16:22:37.275Z,20.50
2017-08-16T16:25:07.514Z,11.80
2017-08-16T16:27:36.950Z,11.20
2017-08-16T16:30:06.436Z,13.30
2017-08-16T16:32:36.598Z,13.00
2017-08-16T16:35:06.012Z,13.60
2017-08-16T16:37:35.415Z,14.03
2017-08-16T16:40:05.606Z,13.97
2017-08-16T16:42:35.037Z,12.70
2017-08-16T16:45:04.106Z,22.67
2017-08-16T16:47:33.712Z,12.90
2017-08-16T16:50:03.888Z,12.13
2017-08-16T16:52:33.298Z,17.47
2017-08-16T16:55:02.717Z,14.70
2017-08-16T16:57:32.122Z,30.17
2017-08-16T17:00:01.584Z,26.53
2017-08-16T17:02:30.778Z,13.33
2017-08-16T17:05:00.207Z,17.90
2017-08-16T17:07:30.372Z,13.83
2017-08-16T17:09:59.965Z,18.83
2017-08-16T17:12:31.784Z,15.10
2017-08-16T17:15:01.236Z,17.80
2017-08-16T17:17:31.409Z,12.50
2017-08-16T17:20:00.883Z,14.37
2017-08-16T17:22:30.093Z,33.83
2017-08-16T17:24:59.527Z,26.13
2017-08-16T17:27:28.929Z,60.90
2017-08-16T17:29:58.377Z,23.13
2017-08-16T17:32:27.642Z,20.37
2017-08-16T17:34:57.047Z,13.27
2017-08-16T17:37:26.486Z,21.70
2017-08-16T17:39:56.649Z,19.67
2017-08-16T17:42:26.077Z,32.03
2017-08-16T17:44:55.481Z,19.20
2017-08-16T17:47:24.922Z,26.10
2017-08-16T17:49:54.350Z,17.93
2017-08-16T17:52:24.600Z,17.63
2017-08-16T17:54:54.133Z,13.33
2017-08-16T17:57:23.588Z,18.43
2017-08-16T17:59:52.990Z,18.90
2017-08-16T18:02:22.413Z,15.23
2017-08-16T18:04:51.818Z,34.23
2017-08-16T18:07:21.252Z,41.13
2017-08-16T18:09:50.664Z,57.13
2017-08-16T18:12:20.864Z,63.53
2017-08-16T18:14:51.036Z,34.13
2017-08-16T18:17:20.460Z,43.27
2017-08-16T18:19:49.850Z,33.40
2017-08-16T18:22:21.213Z,28.70
2017-08-16T18:24:50.673Z,24.07
2017-08-16T18:27:20.112Z,19.10
2017-08-16T18:29:50.284Z,29.90
2017-08-16T18:32:19.884Z,23.47
2017-08-16T18:34:49.270Z,19.83
2017-08-16T18:37:18.723Z,22.73
2017-08-16T18:39:48.110Z,19.40
2017-08-16T18:42:17.530Z,18.20
2017-08-16T18:44:46.967Z,31.70
2017-08-16T18:47:16.395Z,26.33
2017-08-16T18:49:45.791Z,18.80
2017-08-16T18:52:15.200Z,22.47
2017-08-16T18:54:44.599Z,36.73
2017-08-16T18:57:14.029Z,67.83
2017-08-16T18:59:43.438Z,36.27
2017-08-16T19:02:12.857Z,65.73
2017-08-16T19:04:42.270Z,23.90
2017-08-16T19:07:12.368Z,38.90
2017-08-16T19:09:41.732Z,31.03
2017-08-16T19:12:11.158Z,30.70
2017-08-16T19:14:40.180Z,29.07
2017-08-16T19:17:09.600Z,24.60
2017-08-16T19:19:39.005Z,21.20
2017-08-16T19:22:08.430Z,19.90
2017-08-16T19:24:38.588Z,23.63
2017-08-16T19:27:08.015Z,20.80
2017-08-16T19:29:37.456Z,20.80
2017-08-16T19:32:07.651Z,21.03
2017-08-16T19:34:37.075Z,22.47
2017-08-16T19:37:06.478Z,21.23
2017-08-16T19:39:36.648Z,20.73
2017-08-16T19:42:06.056Z,21.00
2017-08-16T19:44:35.480Z,22.80
2017-08-16T19:47:04.898Z,21.53
2017-08-16T19:49:34.302Z,21.30
2017-08-16T19:52:03.710Z,20.93
2017-08-16T19:54:33.168Z,21.20
2017-08-16T19:57:02.563Z,28.13
2017-08-16T19:59:31.998Z,22.73
2017-08-16T20:02:01.386Z,23.10
2017-08-16T20:04:30.841Z,24.93
2017-08-16T20:07:01.208Z,34.37
2017-08-16T20:09:30.641Z,27.67
2017-08-16T20:12:00.065Z,79.57
2017-08-16T20:14:29.499Z,27.50
2017-08-16T20:16:58.892Z,26.40
2017-08-16T20:19:28.285Z,25.37
2017-08-16T20:21:58.464Z,24.00
2017-08-16T20:24:27.855Z,28.20
2017-08-16T20:26:57.090Z,28.20
2017-08-16T20:29:26.477Z,38.07
2017-08-16T20:31:55.892Z,29.20
2017-08-16T20:34:25.288Z,28.47
2017-08-16T20:36:54.691Z,29.97
2017-08-16T20:39:24.131Z,28.10
2017-08-16T20:41:54.307Z,27.43
2017-08-16T20:44:23.726Z,27.80
2017-08-16T20:46:53.140Z,29.10
2017-08-16T20:49:23.309Z,26.00
2017-08-16T20:51:52.531Z,26.47
2017-08-16T20:54:21.949Z,30.17
2017-08-16T20:56:51.356Z,27.60
2017-08-16T20:59:20.799Z,28.70
2017-08-16T21:01:50.244Z,28.63
2017-08-16T21:04:19.656Z,29.07
2017-08-16T21:06:49.085Z,29.70
2017-08-16T21:09:18.492Z,30.70
2017-08-16T21:11:47.903Z,28.97
2017-08-16T21:14:17.301Z,31.23
2017-08-16T21:16:46.728Z,32.40
2017-08-16T21:19:16.125Z,35.23
2017-08-16T21:21:45.550Z,31.30
2017-08-16T21:24:14.954Z,31.50
2017-08-16T21:26:44.373Z,31.77
2017-08-16T21:29:13.817Z,33.53
2017-08-16T21:31:43.243Z,29.87
2017-08-16T21:34:12.641Z,31.23
2017-08-16T21:36:42.083Z,32.00
2017-08-16T21:39:11.539Z,30.67
2017-08-16T21:41:40.975Z,33.40
2017-08-16T21:44:10.403Z,35.43
2017-08-16T21:46:39.810Z,34.60
2017-08-16T21:49:09.966Z,36.57
2017-08-16T21:51:40.149Z,38.23
2017-08-16T21:54:09.558Z,34.40
2017-08-16T21:56:38.974Z,33.87
2017-08-16T21:59:08.399Z,35.20
2017-08-16T22:01:38.581Z,40.70
2017-08-16T22:04:07.811Z,34.30
2017-08-16T22:06:38.037Z,37.40
2017-08-16T22:09:07.267Z,35.30
2017-08-16T22:11:36.650Z,35.70
2017-08-16T22:14:06.082Z,34.50
2017-08-16T22:16:35.493Z,33.43
2017-08-16T22:19:04.954Z,37.27
2017-08-16T22:21:34.363Z,36.63
2017-08-16T22:24:03.827Z,34.40
2017-08-16T22:26:33.508Z,37.73
2017-08-16T22:29:02.970Z,39.07
2017-08-16T22:31:32.410Z,34.40
2017-08-16T22:34:01.878Z,34.20
2017-08-16T22:36:30.952Z,36.57
2017-08-16T22:39:00.376Z,36.60
2017-08-16T22:41:29.776Z,38.07
2017-08-16T22:43:59.201Z,35.37
2017-08-16T22:46:28.635Z,36.07
2017-08-16T22:48:57.853Z,40.20
2017-08-16T22:51:27.477Z,38.30
2017-08-16T22:53:56.701Z,35.40
2017-08-16T22:56:26.127Z,40.27
2017-08-16T22:58:55.526Z,35.17
2017-08-16T23:01:24.940Z,34.70
2017-08-16T23:03:54.351Z,33.23
2017-08-16T23:06:23.759Z,36.87
2017-08-16T23:08:53.169Z,39.90
2017-08-16T23:11:22.602Z,36.27
2017-08-16T23:13:52.766Z,33.77
2017-08-16T23:16:22.201Z,42.10
2017-08-16T23:18:51.608Z,35.63
2017-08-16T23:21:21.025Z,37.67
2017-08-16T23:23:51.243Z,41.60
2017-08-16T23:26:21.442Z,37.77
2017-08-16T23:28:50.833Z,35.63
2017-08-16T23:31:20.294Z,41.43
2017-08-16T23:33:49.695Z,36.77
2017-08-16T23:36:19.124Z,38.43
2017-08-16T23:38:48.517Z,36.77
2017-08-16T23:41:18.697Z,35.90
2017-08-16T23:43:48.111Z,37.47
2017-08-16T23:46:17.452Z,39.63
2017-08-16T23:48:47.634Z,38.47
2017-08-16T23:51:17.113Z,36.33
2017-08-16T23:53:46.526Z,41.90
2017-08-16T23:56:15.934Z,37.67
2017-08-16T23:58:45.330Z,40.10
